createdAt,value
2023-04-16T00:00:03.571Z,8.10
2023-04-16T00:02:39.847Z,8.60
2023-04-16T00:05:07.892Z,8.20
2023-04-16T00:07:35.475Z,8.48
2023-04-16T00:10:03.091Z,8.57
2023-04-16T00:12:30.948Z,7.65
2023-04-16T00:14:58.662Z,7.53
2023-04-16T00:17:26.567Z,8.02
2023-04-16T00:19:54.107Z,7.93
2023-04-16T00:22:21.711Z,7.90
2023-04-16T00:24:49.326Z,7.00
2023-04-16T00:27:16.738Z,6.93
2023-04-16T00:29:44.139Z,7.10
2023-04-16T00:32:11.852Z,6.88
2023-04-16T00:34:39.322Z,6.57
2023-04-16T00:37:06.856Z,6.63
2023-04-16T00:39:34.524Z,6.35
2023-04-16T00:42:02.035Z,6.57
2023-04-16T00:44:30.520Z,5.63
2023-04-16T00:46:59.235Z,6.18
2023-04-16T00:49:27.683Z,6.20
2023-04-16T00:51:57.541Z,6.70
2023-04-16T00:54:26.189Z,6.78
2023-04-16T00:56:54.055Z,6.33
2023-04-16T00:59:21.918Z,6.38
2023-04-16T01:01:49.626Z,6.22
2023-04-16T01:04:17.343Z,6.05
2023-04-16T01:06:44.868Z,6.88
2023-04-16T01:09:13.099Z,6.03
2023-04-16T01:11:40.800Z,6.97
2023-04-16T01:14:08.439Z,7.13
2023-04-16T01:16:36.754Z,6.10
2023-04-16T01:19:04.173Z,5.95
2023-04-16T01:21:32.465Z,5.32
2023-04-16T01:24:04.642Z,5.45
2023-04-16T01:26:32.363Z,5.50
2023-04-16T01:29:00.522Z,5.65
2023-04-16T01:31:28.077Z,5.65
2023-04-16T01:34:03.760Z,5.72
2023-04-16T01:36:31.476Z,5.50
2023-04-16T01:38:58.910Z,5.75
2023-04-16T01:41:27.617Z,5.17
2023-04-16T01:43:55.072Z,5.72
2023-04-16T01:46:29.142Z,5.70
2023-04-16T01:48:58.013Z,5.35
2023-04-16T01:51:25.743Z,5.35
2023-04-16T01:53:53.197Z,5.15
2023-04-16T01:56:20.885Z,6.05
2023-04-16T01:58:48.484Z,5.25
2023-04-16T02:01:18.012Z,5.65
2023-04-16T02:03:47.742Z,5.75
2023-04-16T02:06:16.503Z,5.28
2023-04-16T02:08:44.174Z,5.82
2023-04-16T02:11:11.885Z,5.78
2023-04-16T02:13:39.621Z,5.72
2023-04-16T02:16:07.637Z,5.57
2023-04-16T02:18:49.247Z,5.80
2023-04-16T02:21:20.274Z,6.00
2023-04-16T02:23:51.632Z,5.97
2023-04-16T02:26:23.060Z,6.10
2023-04-16T02:28:51.927Z,5.80
2023-04-16T02:31:24.153Z,6.43
2023-04-16T02:33:52.296Z,5.97
2023-04-16T02:36:19.952Z,6.75
2023-04-16T02:38:47.481Z,6.22
2023-04-16T02:41:15.562Z,6.00
2023-04-16T02:43:43.041Z,6.57
2023-04-16T02:46:10.895Z,6.05
2023-04-16T02:48:39.102Z,6.35
2023-04-16T02:51:06.753Z,6.55
2023-04-16T02:53:35.199Z,6.00
2023-04-16T02:56:02.653Z,6.28
2023-04-16T02:58:30.673Z,6.00
2023-04-16T03:00:58.399Z,6.40
2023-04-16T03:03:26.417Z,6.20
2023-04-16T03:05:54.077Z,6.35
2023-04-16T03:08:22.189Z,6.05
2023-04-16T03:10:49.807Z,6.18
2023-04-16T03:13:17.839Z,5.90
2023-04-16T03:15:50.076Z,6.30
2023-04-16T03:18:17.963Z,6.60
2023-04-16T03:20:45.510Z,6.38
2023-04-16T03:23:13.295Z,6.47
2023-04-16T03:25:40.918Z,6.38
2023-04-16T03:28:10.482Z,6.70
2023-04-16T03:30:39.955Z,6.18
2023-04-16T03:33:08.647Z,5.97
2023-04-16T03:35:36.146Z,6.43
2023-04-16T03:38:04.157Z,6.20
2023-04-16T03:40:32.043Z,5.70
2023-04-16T03:43:00.616Z,5.90
2023-04-16T03:45:29.196Z,5.60
2023-04-16T03:47:56.754Z,6.47
2023-04-16T03:50:26.268Z,6.15
2023-04-16T03:52:53.838Z,5.70
2023-04-16T03:55:21.541Z,6.88
2023-04-16T03:57:49.202Z,6.15
2023-04-16T04:00:17.914Z,6.10
2023-04-16T04:02:58.609Z,6.13
2023-04-16T04:05:26.442Z,5.95
2023-04-16T04:07:56.061Z,5.82
2023-04-16T04:10:23.794Z,5.38
2023-04-16T04:12:51.615Z,5.90
2023-04-16T04:15:19.312Z,6.00
2023-04-16T04:17:46.889Z,6.00
2023-04-16T04:20:14.387Z,5.80
2023-04-16T04:22:45.085Z,6.32
2023-04-16T04:25:13.017Z,6.22
2023-04-16T04:27:40.716Z,6.30
2023-04-16T04:30:09.415Z,6.65
2023-04-16T04:32:37.007Z,6.70
2023-04-16T04:35:04.780Z,6.40
2023-04-16T04:37:32.370Z,6.70
2023-04-16T04:40:02.119Z,6.13
2023-04-16T04:42:29.994Z,6.03
2023-04-16T04:44:57.549Z,5.82
2023-04-16T04:47:25.183Z,5.40
2023-04-16T04:49:53.959Z,6.57
2023-04-16T04:52:21.459Z,5.53
2023-04-16T04:57:20.667Z,5.07
2023-04-16T04:59:51.593Z,5.43
2023-04-16T05:02:19.958Z,5.95
2023-04-16T05:04:47.529Z,5.55
2023-04-16T05:07:15.009Z,5.10
2023-04-16T05:09:42.591Z,5.38
2023-04-16T05:12:10.044Z,5.35
2023-04-16T05:14:37.573Z,5.88
2023-04-16T05:17:05.393Z,5.50
2023-04-16T05:19:33.694Z,4.82
2023-04-16T05:22:02.316Z,5.32
2023-04-16T05:24:30.016Z,5.03
2023-04-16T05:26:57.909Z,5.10
2023-04-16T05:29:25.735Z,4.97
2023-04-16T05:31:53.392Z,5.53
2023-04-16T05:34:20.825Z,4.97
2023-04-16T05:36:48.596Z,5.20
2023-04-16T05:39:18.145Z,4.95
2023-04-16T05:41:45.762Z,5.63
2023-04-16T05:44:13.212Z,5.07
2023-04-16T05:46:42.077Z,5.37
2023-04-16T05:49:11.168Z,5.18
2023-04-16T05:51:38.854Z,4.80
2023-04-16T05:54:06.233Z,4.80
2023-04-16T05:56:33.707Z,5.30
2023-04-16T05:59:01.702Z,4.72
2023-04-16T06:01:29.310Z,4.80
2023-04-16T06:03:57.017Z,5.20
2023-04-16T06:06:24.696Z,4.70
2023-04-16T06:08:52.155Z,4.72
2023-04-16T06:11:19.807Z,4.82
2023-04-16T06:13:47.209Z,4.57
2023-04-16T06:16:14.689Z,5.13
2023-04-16T06:18:42.458Z,5.00
2023-04-16T06:21:10.413Z,4.93
2023-04-16T06:23:37.896Z,4.75
2023-04-16T06:26:05.841Z,4.88
2023-04-16T06:28:33.349Z,4.72
2023-04-16T06:31:01.202Z,4.97
2023-04-16T06:33:28.807Z,4.93
2023-04-16T06:35:56.695Z,4.65
2023-04-16T06:38:24.166Z,4.78
2023-04-16T06:40:51.937Z,4.55
2023-04-16T06:43:19.887Z,4.63
2023-04-16T06:45:47.335Z,4.40
2023-04-16T06:48:15.093Z,4.70
2023-04-16T06:50:42.532Z,4.57
2023-04-16T06:53:09.964Z,4.22
2023-04-16T06:55:37.457Z,4.40
2023-04-16T06:58:04.979Z,4.20
2023-04-16T07:00:32.759Z,4.60
2023-04-16T07:03:01.746Z,4.90
2023-04-16T07:05:29.846Z,4.50
2023-04-16T07:07:57.797Z,3.80
2023-04-16T07:10:25.628Z,4.00
2023-04-16T07:12:53.288Z,3.65
2023-04-16T07:15:20.774Z,4.13
2023-04-16T07:17:48.281Z,3.72
2023-04-16T07:20:16.315Z,4.07
2023-04-16T07:22:43.960Z,4.07
2023-04-16T07:25:11.369Z,3.90
2023-04-16T07:27:38.945Z,3.70
2023-04-16T07:30:08.048Z,3.90
2023-04-16T07:32:35.923Z,3.65
2023-04-16T07:35:03.990Z,3.70
2023-04-16T07:37:31.478Z,3.45
2023-04-16T07:40:00.674Z,3.20
2023-04-16T07:42:28.468Z,2.95
2023-04-16T07:44:56.082Z,3.13
2023-04-16T07:47:26.947Z,3.20
2023-04-16T07:49:55.063Z,3.38
2023-04-16T07:52:22.582Z,3.17
2023-04-16T07:54:51.746Z,3.00
2023-04-16T07:57:19.372Z,2.67
2023-04-16T07:59:46.921Z,3.20
2023-04-16T08:02:17.206Z,2.97
2023-04-16T08:04:45.217Z,3.03
2023-04-16T08:07:13.057Z,2.80
2023-04-16T08:09:52.113Z,2.60
2023-04-16T08:12:21.048Z,2.83
2023-04-16T08:14:48.836Z,3.00
2023-04-16T08:17:16.639Z,2.88
2023-04-16T08:19:47.732Z,2.80
2023-04-16T08:22:15.446Z,2.72
2023-04-16T08:24:43.052Z,3.08
2023-04-16T08:27:19.273Z,2.38
2023-04-16T08:29:48.542Z,2.90
2023-04-16T08:32:16.087Z,2.40
2023-04-16T08:34:43.690Z,2.40
2023-04-16T08:37:11.182Z,2.55
2023-04-16T08:39:38.834Z,2.47
2023-04-16T08:42:19.025Z,2.53
2023-04-16T08:44:49.610Z,2.60
2023-04-16T08:47:17.740Z,2.60
2023-04-16T08:49:48.746Z,2.25
2023-04-16T08:52:22.332Z,2.70
2023-04-16T08:54:57.390Z,2.50
2023-04-16T08:57:30.812Z,2.60
2023-04-16T08:59:58.624Z,2.70
2023-04-16T09:02:27.233Z,3.15
2023-04-16T09:04:56.535Z,2.70
2023-04-16T09:07:25.778Z,15.90
2023-04-16T09:09:53.944Z,3.75
2023-04-16T09:12:24.266Z,3.08
2023-04-16T09:14:52.244Z,2.65
2023-04-16T09:17:19.904Z,3.00
2023-04-16T09:19:47.370Z,2.30
2023-04-16T09:22:14.822Z,2.53
2023-04-16T09:24:42.341Z,2.92
2023-04-16T09:27:09.891Z,2.90
2023-04-16T09:29:40.502Z,2.55
2023-04-16T09:32:10.277Z,2.63
2023-04-16T09:34:58.545Z,2.60
2023-04-16T09:37:29.868Z,2.50
2023-04-16T09:40:02.513Z,2.08
2023-04-16T09:42:36.992Z,3.15
2023-04-16T09:45:06.132Z,2.75
2023-04-16T09:47:41.631Z,2.45
2023-04-16T09:50:12.405Z,2.30
2023-04-16T09:52:43.232Z,2.50
2023-04-16T09:55:10.765Z,2.20
2023-04-16T09:57:38.970Z,2.33
2023-04-16T10:00:09.447Z,2.42
2023-04-16T10:02:41.894Z,2.63
2023-04-16T10:05:09.902Z,2.30
2023-04-16T10:07:37.975Z,2.33
2023-04-16T10:10:06.189Z,2.55
2023-04-16T10:12:34.113Z,2.70
2023-04-16T10:15:01.911Z,2.67
2023-04-16T10:17:31.633Z,2.38
2023-04-16T10:20:46.380Z,2.50
2023-04-16T10:23:14.391Z,2.30
2023-04-16T10:25:43.185Z,2.42
2023-04-16T10:28:12.854Z,2.55
2023-04-16T10:30:42.436Z,2.25
2023-04-16T10:33:10.249Z,2.30
2023-04-16T10:35:40.923Z,3.00
2023-04-16T10:38:27.912Z,2.17
2023-04-16T10:41:06.304Z,2.35
2023-04-16T10:43:40.622Z,2.60
2023-04-16T10:46:31.262Z,2.05
2023-04-16T10:49:13.646Z,2.45
2023-04-16T10:51:43.440Z,2.70
2023-04-16T10:56:45.945Z,2.60
2023-04-16T10:59:14.004Z,2.75
2023-04-16T11:01:44.387Z,2.17
2023-04-16T11:04:21.451Z,2.63
2023-04-16T11:07:15.625Z,2.60
2023-04-16T11:09:59.382Z,2.10
2023-04-16T11:12:34.475Z,2.10
2023-04-16T11:15:13.830Z,2.30
2023-04-16T11:17:43.611Z,2.35
2023-04-16T11:20:18.961Z,2.65
2023-04-16T11:22:49.308Z,2.50
2023-04-16T11:25:34.984Z,2.30
2023-04-16T11:28:02.816Z,2.40
2023-04-16T11:30:33.931Z,2.10
2023-04-16T11:33:11.218Z,2.40
2023-04-16T11:35:39.930Z,2.10
2023-04-16T11:38:07.756Z,7.93
2023-04-16T11:40:36.458Z,2.55
2023-04-16T11:43:14.019Z,2.40
2023-04-16T11:45:59.921Z,2.45
2023-04-16T11:48:52.872Z,2.30
2023-04-16T11:51:21.850Z,2.13
2023-04-16T11:53:53.472Z,2.03
2023-04-16T11:56:29.452Z,2.28
2023-04-16T11:59:14.521Z,7.45
2023-04-16T12:01:47.563Z,2.22
2023-04-16T12:04:16.745Z,2.55
2023-04-16T12:07:07.138Z,2.20
2023-04-16T12:09:37.913Z,2.47
2023-04-16T12:12:26.300Z,2.35
2023-04-16T12:14:54.833Z,2.15
2023-04-16T12:17:22.442Z,2.10
2023-04-16T12:19:53.231Z,2.47
2023-04-16T12:22:36.810Z,2.78
2023-04-16T12:25:07.154Z,2.40
2023-04-16T12:27:53.736Z,2.30
2023-04-16T12:30:23.539Z,2.13
2023-04-16T12:33:10.731Z,2.13
2023-04-16T12:35:38.740Z,2.42
2023-04-16T12:38:06.426Z,2.45
2023-04-16T12:40:34.724Z,2.42
2023-04-16T12:43:02.988Z,2.10
2023-04-16T12:45:30.939Z,2.45
2023-04-16T12:47:59.521Z,2.45
2023-04-16T12:50:28.692Z,2.22
2023-04-16T12:52:56.883Z,2.47
2023-04-16T12:55:24.588Z,2.63
2023-04-16T12:57:55.028Z,2.40
2023-04-16T13:00:22.826Z,2.13
2023-04-16T13:02:50.551Z,2.58
2023-04-16T13:05:19.360Z,2.22
2023-04-16T13:07:48.497Z,2.15
2023-04-16T13:10:16.831Z,2.50
2023-04-16T13:15:14.679Z,2.00
2023-04-16T13:17:42.184Z,2.17
2023-04-16T13:20:10.413Z,2.58
2023-04-16T13:22:38.085Z,2.33
2023-04-16T13:25:06.193Z,2.33
2023-04-16T13:27:34.091Z,3.47
2023-04-16T13:30:01.719Z,2.40
2023-04-16T13:32:29.513Z,2.47
2023-04-16T13:34:57.248Z,2.22
2023-04-16T13:37:24.801Z,2.38
2023-04-16T13:39:52.296Z,2.30
2023-04-16T13:42:19.783Z,2.00
2023-04-16T13:44:49.390Z,2.10
2023-04-16T13:47:17.129Z,2.40
2023-04-16T13:49:44.587Z,2.22
2023-04-16T13:52:12.078Z,2.10
2023-04-16T13:54:40.575Z,2.22
2023-04-16T13:57:19.924Z,2.10
2023-04-16T13:59:47.614Z,2.10
2023-04-16T14:02:15.300Z,2.58
2023-04-16T14:04:42.845Z,2.05
2023-04-16T14:07:10.623Z,2.17
2023-04-16T14:09:39.233Z,1.85
2023-04-16T14:12:06.977Z,2.28
2023-04-16T14:14:35.120Z,2.30
2023-04-16T14:17:03.424Z,2.50
2023-04-16T14:19:31.677Z,2.45
2023-04-16T14:21:59.214Z,2.75
2023-04-16T14:24:29.708Z,2.60
2023-04-16T14:26:57.277Z,2.55
2023-04-16T14:29:24.826Z,2.40
2023-04-16T14:31:52.711Z,2.20
2023-04-16T14:34:20.424Z,2.50
2023-04-16T14:36:49.808Z,2.92
2023-04-16T14:39:17.591Z,2.28
2023-04-16T14:41:45.308Z,2.60
2023-04-16T14:44:12.801Z,1.90
2023-04-16T14:46:41.107Z,2.40
2023-04-16T14:49:11.983Z,2.25
2023-04-16T14:51:40.752Z,2.20
2023-04-16T14:54:08.235Z,2.72
2023-04-16T14:56:35.780Z,2.45
2023-04-16T14:59:03.303Z,2.50
2023-04-16T15:01:32.735Z,3.15
2023-04-16T15:04:02.100Z,2.17
2023-04-16T15:08:58.044Z,2.58
2023-04-16T15:11:25.787Z,2.28
2023-04-16T15:13:53.248Z,2.50
2023-04-16T15:16:21.179Z,2.58
2023-04-16T15:18:50.182Z,2.40
2023-04-16T15:21:17.800Z,2.50
2023-04-16T15:23:45.942Z,2.30
2023-04-16T15:26:13.447Z,2.30
2023-04-16T15:28:42.328Z,2.65
2023-04-16T15:31:10.165Z,2.38
2023-04-16T15:33:37.821Z,2.38
2023-04-16T15:36:05.899Z,2.65
2023-04-16T15:38:33.656Z,2.70
2023-04-16T15:41:01.231Z,2.60
2023-04-16T15:43:29.903Z,2.67
2023-04-16T15:45:57.537Z,2.60
2023-04-16T15:48:25.063Z,2.60
2023-04-16T15:50:53.851Z,2.70
2023-04-16T15:53:21.728Z,2.40
2023-04-16T15:55:53.795Z,2.22
2023-04-16T15:58:21.539Z,2.28
2023-04-16T16:00:50.756Z,2.30
2023-04-16T16:03:19.176Z,2.00
2023-04-16T16:05:48.074Z,2.40
2023-04-16T16:08:16.861Z,2.40
2023-04-16T16:10:44.535Z,2.80
2023-04-16T16:13:14.138Z,2.22
2023-04-16T16:15:42.305Z,2.17
2023-04-16T16:18:10.099Z,2.40
2023-04-16T16:20:37.727Z,2.42
2023-04-16T16:23:07.224Z,2.50
2023-04-16T16:25:34.867Z,2.20
2023-04-16T16:28:06.724Z,2.20
2023-04-16T16:30:34.412Z,2.55
2023-04-16T16:33:01.887Z,2.42
2023-04-16T16:35:29.560Z,2.13
2023-04-16T16:37:57.377Z,2.08
2023-04-16T16:40:25.330Z,2.22
2023-04-16T16:42:53.630Z,2.17
2023-04-16T16:45:21.253Z,2.40
2023-04-16T16:47:49.129Z,2.20
2023-04-16T16:50:16.838Z,2.22
2023-04-16T16:52:44.826Z,2.00
2023-04-16T16:55:12.510Z,2.10
2023-04-16T16:57:40.257Z,2.50
2023-04-16T17:00:11.456Z,2.08
2023-04-16T17:02:40.333Z,1.88
2023-04-16T17:05:08.308Z,2.33
2023-04-16T17:07:36.441Z,2.13
2023-04-16T17:10:11.186Z,2.25
2023-04-16T17:12:39.850Z,1.90
2023-04-16T17:15:08.142Z,1.80
2023-04-16T17:17:36.941Z,2.10
2023-04-16T17:20:10.010Z,2.15
2023-04-16T17:22:38.822Z,2.25
2023-04-16T17:25:10.233Z,2.20
2023-04-16T17:27:37.929Z,1.70
2023-04-16T17:30:06.677Z,1.85
2023-04-16T17:32:34.535Z,2.30
2023-04-16T17:35:04.342Z,1.92
2023-04-16T17:37:32.211Z,1.90
2023-04-16T17:39:59.713Z,1.85
2023-04-16T17:42:27.192Z,2.00
2023-04-16T17:44:54.731Z,1.92
2023-04-16T17:47:22.615Z,1.88
2023-04-16T17:49:54.029Z,2.22
2023-04-16T17:52:22.302Z,1.85
2023-04-16T17:54:49.847Z,1.98
2023-04-16T17:57:17.420Z,2.28
2023-04-16T17:59:44.887Z,3.50
2023-04-16T18:02:12.409Z,3.92
2023-04-16T18:04:39.970Z,2.08
2023-04-16T18:07:07.512Z,1.98
2023-04-16T18:09:35.779Z,2.00
2023-04-16T18:12:03.573Z,1.88
2023-04-16T18:14:34.581Z,2.10
2023-04-16T18:17:05.585Z,1.90
2023-04-16T18:19:35.559Z,2.03
2023-04-16T18:22:03.252Z,2.10
2023-04-16T18:24:31.176Z,1.95
2023-04-16T18:26:58.869Z,1.70
2023-04-16T18:29:26.480Z,2.03
2023-04-16T18:31:55.651Z,2.40
2023-04-16T18:34:25.464Z,2.05
2023-04-16T18:36:53.061Z,1.77
2023-04-16T18:39:20.638Z,2.10
2023-04-16T18:41:48.355Z,2.20
2023-04-16T18:44:17.212Z,2.20
2023-04-16T18:46:44.711Z,2.00
2023-04-16T18:49:12.660Z,1.90
2023-04-16T18:51:42.000Z,2.10
2023-04-16T18:54:09.558Z,2.17
2023-04-16T18:56:37.251Z,2.28
2023-04-16T18:59:04.652Z,2.38
2023-04-16T19:01:32.216Z,2.22
2023-04-16T19:03:59.795Z,2.70
2023-04-16T19:06:29.243Z,2.25
2023-04-16T19:08:56.776Z,2.35
2023-04-16T19:11:24.340Z,2.20
2023-04-16T19:13:51.763Z,2.10
2023-04-16T19:16:19.258Z,2.17
2023-04-16T19:18:46.956Z,2.78
2023-04-16T19:21:14.368Z,2.50
2023-04-16T19:23:41.929Z,2.40
2023-04-16T19:26:09.381Z,2.13
2023-04-16T19:28:38.811Z,2.58
2023-04-16T19:31:06.642Z,2.15
2023-04-16T19:33:34.920Z,2.40
2023-04-16T19:36:02.775Z,2.60
2023-04-16T19:38:32.835Z,2.10
2023-04-16T19:41:00.471Z,2.50
2023-04-16T19:43:30.713Z,2.83
2023-04-16T19:45:58.812Z,2.90
2023-04-16T19:48:30.432Z,2.63
2023-04-16T19:51:03.180Z,2.50
2023-04-16T19:53:30.958Z,2.53
2023-04-16T19:55:58.494Z,2.60
2023-04-16T19:58:26.078Z,2.05
2023-04-16T20:00:53.632Z,8.00
2023-04-16T20:03:21.256Z,4.63
2023-04-16T20:05:52.063Z,2.63
2023-04-16T20:08:19.688Z,2.05
2023-04-16T20:10:47.280Z,2.63
2023-04-16T20:13:17.975Z,1.95
2023-04-16T20:15:47.233Z,1.70
2023-04-16T20:18:14.751Z,2.00
2023-04-16T20:20:42.327Z,2.30
2023-04-16T20:23:09.920Z,1.98
2023-04-16T20:25:43.984Z,2.10
2023-04-16T20:28:12.544Z,2.20
2023-04-16T20:30:40.232Z,2.05
2023-04-16T20:33:09.213Z,1.90
2023-04-16T20:35:36.859Z,25.33
2023-04-16T20:38:04.434Z,8.10
2023-04-16T20:40:32.610Z,1.80
2023-04-16T20:43:00.340Z,1.90
2023-04-16T20:45:41.151Z,1.90
2023-04-16T20:48:08.961Z,1.70
2023-04-16T20:50:36.981Z,2.15
2023-04-16T20:53:04.521Z,1.90
2023-04-16T20:55:32.606Z,2.05
2023-04-16T20:58:00.017Z,1.90
2023-04-16T21:00:28.412Z,1.60
2023-04-16T21:02:56.139Z,2.10
2023-04-16T21:05:23.970Z,1.65
2023-04-16T21:07:53.443Z,1.83
2023-04-16T21:10:22.823Z,1.90
2023-04-16T21:12:50.335Z,1.95
2023-04-16T21:15:17.816Z,2.13
2023-04-16T21:17:45.315Z,1.80
2023-04-16T21:20:14.116Z,1.80
2023-04-16T21:22:41.782Z,2.00
2023-04-16T21:25:09.637Z,1.60
2023-04-16T21:27:37.464Z,1.67
2023-04-16T21:30:05.358Z,1.40
2023-04-16T21:32:33.087Z,1.98
2023-04-16T21:35:00.951Z,1.63
2023-04-16T21:37:28.399Z,1.75
2023-04-16T21:39:56.115Z,1.88
2023-04-16T21:42:23.731Z,1.98
2023-04-16T21:44:51.309Z,1.75
2023-04-16T21:47:18.829Z,2.03
2023-04-16T21:49:46.452Z,2.05
2023-04-16T21:52:19.983Z,1.80
2023-04-16T21:54:47.548Z,1.88
2023-04-16T21:57:15.005Z,1.88
2023-04-16T21:59:42.589Z,1.73
2023-04-16T22:02:10.128Z,1.65
2023-04-16T22:04:38.580Z,1.80
2023-04-16T22:07:08.881Z,2.65
2023-04-16T22:09:41.654Z,6.13
2023-04-16T22:12:12.858Z,2.40
2023-04-16T22:14:46.160Z,2.22
2023-04-16T22:17:15.124Z,1.80
2023-04-16T22:19:44.587Z,2.00
2023-04-16T22:22:12.531Z,2.20
2023-04-16T22:24:39.959Z,2.28
2023-04-16T22:27:07.531Z,1.80
2023-04-16T22:29:35.024Z,1.98
2023-04-16T22:32:02.534Z,2.00
2023-04-16T22:34:30.225Z,1.75
2023-04-16T22:36:58.032Z,2.22
2023-04-16T22:39:25.646Z,1.80
2023-04-16T22:41:53.136Z,1.98
2023-04-16T22:44:20.648Z,1.92
2023-04-16T22:46:48.362Z,1.98
2023-04-16T22:49:15.996Z,1.98
2023-04-16T22:51:43.477Z,2.20
2023-04-16T22:54:13.266Z,2.05
2023-04-16T22:56:41.626Z,2.03
2023-04-16T22:59:09.324Z,2.30
2023-04-16T23:01:37.211Z,2.45
2023-04-16T23:04:04.870Z,2.47
2023-04-16T23:06:33.028Z,2.38
2023-04-16T23:09:00.628Z,2.25
2023-04-16T23:11:28.023Z,2.13
2023-04-16T23:13:55.842Z,2.22
2023-04-16T23:16:23.441Z,2.30
2023-04-16T23:18:51.001Z,2.40
2023-04-16T23:21:18.918Z,3.15
2023-04-16T23:23:46.555Z,2.92
2023-04-16T23:26:14.097Z,2.88
2023-04-16T23:28:41.579Z,3.42
2023-04-16T23:31:09.147Z,3.05
2023-04-16T23:33:36.955Z,3.25
2023-04-16T23:36:05.081Z,3.00
2023-04-16T23:38:32.765Z,3.22
2023-04-16T23:41:00.439Z,3.13
2023-04-16T23:43:28.256Z,2.78
2023-04-16T23:45:55.869Z,3.15
2023-04-16T23:48:23.645Z,3.50
2023-04-16T23:50:51.064Z,3.67
2023-04-16T23:53:18.608Z,3.92
2023-04-16T23:55:46.124Z,3.58
2023-04-16T23:58:13.572Z,3.70
